UAE60 EDDH-OMDB
Flight info
| Callsign | UAE60 |
|---|---|
| Flight time | N/A |
| Altitude | 35000 |
| Route | RAMAR6G/33 RAMAR DCT PABMI DCT RADEL DCT GERGA DCT SUBIX DCT VAGON DCT KELEL DCT KEKED DCT KARIL DCT MAXOV DCT ARTAT UP975 ERGUN/N0492F370 UL124 BONAM L319 DASDO L223 LAM G666 ORSAR R784 TATLA L223 VUTEB |
| Aircraft | B77W/H-SDE1E2E3FGHIJ2J3J4J5M1RWXY/LB1D1 |
Departure
| Time | N/A |
|---|---|
| Airport | Hamburg Helmut Schmidt Airport (EDDH) |
Arrival
| Time | 2026-05-05 15:52 |
|---|---|
| Airport | Dubai International Airport (OMDB) |
| Time | Latitude | Longitude | Altitude | Speed | Heading |
|---|---|---|---|---|---|
| 2026-05-05 15:22 | 26.68169 | 53.47825 | 36773 ft | 520 kts | 146° |
| 2026-05-05 15:22 | 26.62651 | 53.53073 | 36775 ft | 519 kts | 147° |
| 2026-05-05 15:23 | 26.57106 | 53.58265 | 36775 ft | 519 kts | 147° |
| 2026-05-05 15:23 | 26.51307 | 53.62987 | 36784 ft | 513 kts | 153° |
| 2026-05-05 15:24 | 26.45398 | 53.67357 | 36773 ft | 513 kts | 153° |
| 2026-05-05 15:24 | 26.39466 | 53.71800 | 36777 ft | 513 kts | 152° |
| 2026-05-05 15:25 | 26.33551 | 53.76264 | 36780 ft | 513 kts | 152° |
| 2026-05-05 15:25 | 26.27624 | 53.80719 | 36699 ft | 509 kts | 152° |
| 2026-05-05 15:25 | 26.24707 | 53.82911 | 36407 ft | 500 kts | 152° |
| 2026-05-05 15:26 | 26.21830 | 53.85070 | 35734 ft | 500 kts | 152° |
| 2026-05-05 15:26 | 26.18929 | 53.87240 | 34823 ft | 505 kts | 152° |
| 2026-05-05 15:26 | 26.15990 | 53.89438 | 33866 ft | 511 kts | 152° |
| 2026-05-05 15:26 | 26.13063 | 53.91629 | 32805 ft | 516 kts | 152° |
| 2026-05-05 15:27 | 26.10179 | 53.94058 | 31730 ft | 526 kts | 143° |
| 2026-05-05 15:27 | 26.07577 | 53.96989 | 30692 ft | 535 kts | 135° |
| 2026-05-05 15:27 | 26.05298 | 54.00294 | 29796 ft | 539 kts | 127° |
| 2026-05-05 15:27 | 26.03457 | 54.03912 | 29097 ft | 535 kts | 120° |
| 2026-05-05 15:28 | 26.01791 | 54.07582 | 28577 ft | 525 kts | 119° |
| 2026-05-05 15:28 | 26.00167 | 54.11178 | 28054 ft | 517 kts | 119° |
| 2026-05-05 15:28 | 25.98560 | 54.14670 | 27482 ft | 510 kts | 119° |
| 2026-05-05 15:28 | 25.96922 | 54.18152 | 26893 ft | 504 kts | 120° |
| 2026-05-05 15:29 | 25.95296 | 54.21569 | 26312 ft | 498 kts | 120° |
| 2026-05-05 15:29 | 25.93683 | 54.24952 | 25760 ft | 491 kts | 119° |
| 2026-05-05 15:29 | 25.92128 | 54.28306 | 25243 ft | 486 kts | 116° |
| 2026-05-05 15:29 | 25.90836 | 54.31752 | 24713 ft | 481 kts | 110° |
| 2026-05-05 15:30 | 25.89780 | 54.35248 | 24211 ft | 475 kts | 109° |
| 2026-05-05 15:30 | 25.88733 | 54.38698 | 23716 ft | 469 kts | 109° |
| 2026-05-05 15:30 | 25.87671 | 54.42099 | 23208 ft | 463 kts | 110° |
| 2026-05-05 15:30 | 25.86610 | 54.45451 | 22621 ft | 458 kts | 110° |
| 2026-05-05 15:31 | 25.85555 | 54.48771 | 22003 ft | 454 kts | 110° |
| 2026-05-05 15:31 | 25.84522 | 54.52023 | 21401 ft | 450 kts | 109° |
| 2026-05-05 15:31 | 25.83487 | 54.55286 | 20827 ft | 446 kts | 109° |
| 2026-05-05 15:31 | 25.82460 | 54.58523 | 20274 ft | 442 kts | 109° |
| 2026-05-05 15:32 | 25.81442 | 54.61728 | 19721 ft | 438 kts | 110° |
| 2026-05-05 15:32 | 25.80257 | 54.64835 | 19175 ft | 434 kts | 118° |
| 2026-05-05 15:32 | 25.78667 | 54.67657 | 18650 ft | 430 kts | 126° |
| 2026-05-05 15:32 | 25.76773 | 54.70211 | 18142 ft | 426 kts | 134° |
| 2026-05-05 15:33 | 25.74642 | 54.72474 | 17606 ft | 422 kts | 137° |
| 2026-05-05 15:33 | 25.72499 | 54.74676 | 17045 ft | 419 kts | 137° |
| 2026-05-05 15:33 | 25.70372 | 54.76870 | 16512 ft | 415 kts | 137° |
| 2026-05-05 15:33 | 25.68277 | 54.79053 | 15965 ft | 412 kts | 136° |
| 2026-05-05 15:34 | 25.66201 | 54.81234 | 15455 ft | 409 kts | 136° |
| 2026-05-05 15:34 | 25.64144 | 54.83401 | 14961 ft | 406 kts | 136° |
| 2026-05-05 15:34 | 25.62142 | 54.85525 | 14864 ft | 387 kts | 134° |
| 2026-05-05 15:34 | 25.60601 | 54.87843 | 14742 ft | 371 kts | 115° |
| 2026-05-05 15:35 | 25.59637 | 54.90412 | 14659 ft | 355 kts | 111° |
| 2026-05-05 15:35 | 25.58708 | 54.92906 | 14577 ft | 344 kts | 112° |
| 2026-05-05 15:35 | 25.57775 | 54.95340 | 14521 ft | 333 kts | 112° |
| 2026-05-05 15:35 | 25.56871 | 54.97658 | 14446 ft | 323 kts | 113° |
| 2026-05-05 15:36 | 25.56000 | 54.99873 | 14381 ft | 312 kts | 113° |
| 2026-05-05 15:36 | 25.55143 | 55.02047 | 14298 ft | 303 kts | 113° |
| 2026-05-05 15:36 | 25.54281 | 55.04142 | 14171 ft | 296 kts | 117° |
| 2026-05-05 15:36 | 25.53289 | 55.06116 | 13961 ft | 292 kts | 120° |
| 2026-05-05 15:37 | 25.52259 | 55.08046 | 13688 ft | 291 kts | 120° |
| 2026-05-05 15:37 | 25.51234 | 55.09968 | 13393 ft | 290 kts | 120° |
| 2026-05-05 15:37 | 25.50218 | 55.11890 | 13079 ft | 288 kts | 120° |
| 2026-05-05 15:37 | 25.49214 | 55.13809 | 12804 ft | 287 kts | 120° |
| 2026-05-05 15:38 | 25.48221 | 55.15716 | 12523 ft | 285 kts | 120° |
| 2026-05-05 15:38 | 25.47233 | 55.17616 | 12236 ft | 284 kts | 120° |
| 2026-05-05 15:38 | 25.46250 | 55.19504 | 11938 ft | 283 kts | 121° |
| 2026-05-05 15:38 | 25.45097 | 55.21262 | 11609 ft | 282 kts | 131° |
| 2026-05-05 15:39 | 25.43772 | 55.22859 | 11316 ft | 281 kts | 133° |
| 2026-05-05 15:39 | 25.42428 | 55.24429 | 11028 ft | 280 kts | 133° |
| 2026-05-05 15:39 | 25.41119 | 55.25982 | 10783 ft | 279 kts | 133° |
| 2026-05-05 15:39 | 25.39812 | 55.27561 | 10515 ft | 278 kts | 132° |
| 2026-05-05 15:40 | 25.38517 | 55.29141 | 10245 ft | 277 kts | 132° |
| 2026-05-05 15:40 | 25.37236 | 55.30711 | 10057 ft | 271 kts | 132° |
| 2026-05-05 15:40 | 25.35990 | 55.32231 | 9967 ft | 262 kts | 134° |
| 2026-05-05 15:40 | 25.34583 | 55.33435 | 9762 ft | 254 kts | 150° |
| 2026-05-05 15:41 | 25.33030 | 55.34349 | 9540 ft | 251 kts | 153° |
| 2026-05-05 15:41 | 25.31474 | 55.35212 | 9267 ft | 250 kts | 153° |
| 2026-05-05 15:41 | 25.29922 | 55.36079 | 8984 ft | 249 kts | 153° |
| 2026-05-05 15:41 | 25.28386 | 55.36950 | 8697 ft | 248 kts | 153° |
| 2026-05-05 15:42 | 25.26857 | 55.37827 | 8431 ft | 247 kts | 153° |
| 2026-05-05 15:42 | 25.25335 | 55.38707 | 8151 ft | 246 kts | 153° |
| 2026-05-05 15:42 | 25.23827 | 55.39586 | 7931 ft | 243 kts | 152° |
| 2026-05-05 15:42 | 25.22347 | 55.40450 | 7798 ft | 240 kts | 152° |
| 2026-05-05 15:43 | 25.20863 | 55.41318 | 7679 ft | 243 kts | 152° |
| 2026-05-05 15:43 | 25.19358 | 55.42197 | 7590 ft | 246 kts | 152° |
| 2026-05-05 15:43 | 25.17847 | 55.43081 | 7427 ft | 247 kts | 152° |
| 2026-05-05 15:43 | 25.16311 | 55.43980 | 7096 ft | 251 kts | 152° |
| 2026-05-05 15:44 | 25.14786 | 55.44871 | 6804 ft | 252 kts | 152° |
| 2026-05-05 15:44 | 25.13211 | 55.45791 | 6299 ft | 253 kts | 152° |
| 2026-05-05 15:44 | 25.11677 | 55.46713 | 5585 ft | 255 kts | 145° |
| 2026-05-05 15:44 | 25.10483 | 55.48126 | 4880 ft | 253 kts | 120° |
| 2026-05-05 15:45 | 25.09594 | 55.49801 | 4201 ft | 253 kts | 120° |
| 2026-05-05 15:45 | 25.08676 | 55.51469 | 3504 ft | 254 kts | 120° |
| 2026-05-05 15:45 | 25.07752 | 55.53131 | 2807 ft | 254 kts | 120° |
| 2026-05-05 15:45 | 25.06925 | 55.54812 | 2367 ft | 241 kts | 105° |
| 2026-05-05 15:46 | 25.06857 | 55.56548 | 2141 ft | 219 kts | 73° |
| 2026-05-05 15:46 | 25.07396 | 55.58092 | 2044 ft | 218 kts | 73° |
| 2026-05-05 15:46 | 25.08026 | 55.59611 | 2024 ft | 219 kts | 53° |
| 2026-05-05 15:46 | 25.09208 | 55.60634 | 2036 ft | 219 kts | 21° |
| 2026-05-05 15:47 | 25.10731 | 55.60716 | 2022 ft | 226 kts | 347° |
| 2026-05-05 15:47 | 25.11663 | 55.60212 | 2026 ft | 229 kts | 324° |
| 2026-05-05 15:47 | 25.13050 | 55.58441 | 2044 ft | 231 kts | 307° |
| 2026-05-05 15:47 | 25.13942 | 55.56944 | 2027 ft | 235 kts | 303° |
| 2026-05-05 15:48 | 25.14778 | 55.55435 | 2020 ft | 220 kts | 303° |
| 2026-05-05 15:48 | 25.15551 | 55.54028 | 2024 ft | 210 kts | 303° |
| 2026-05-05 15:48 | 25.16314 | 55.52649 | 2023 ft | 211 kts | 303° |
| 2026-05-05 15:48 | 25.17080 | 55.51266 | 2004 ft | 211 kts | 303° |
| 2026-05-05 15:49 | 25.17843 | 55.49885 | 1994 ft | 210 kts | 303° |
| 2026-05-05 15:49 | 25.18598 | 55.48523 | 1830 ft | 203 kts | 304° |
| 2026-05-05 15:49 | 25.19292 | 55.47265 | 1579 ft | 178 kts | 304° |
| 2026-05-05 15:49 | 25.19888 | 55.46189 | 1361 ft | 154 kts | 304° |
| 2026-05-05 15:50 | 25.20433 | 55.45206 | 1182 ft | 148 kts | 304° |
| 2026-05-05 15:50 | 25.20797 | 55.44552 | 1085 ft | 152 kts | 304° |
| 2026-05-05 15:50 | 25.21336 | 55.43548 | 874 ft | 148 kts | 303° |
| 2026-05-05 15:50 | 25.21856 | 55.42602 | 694 ft | 142 kts | 305° |
| 2026-05-05 15:51 | 25.22371 | 55.41682 | 495 ft | 140 kts | 304° |
| 2026-05-05 15:51 | 25.22884 | 55.40753 | 349 ft | 143 kts | 302° |
| 2026-05-05 15:51 | 25.23393 | 55.39834 | 113 ft | 137 kts | 303° |
| 2026-05-05 15:51 | 25.23881 | 55.38958 | 29 ft | 127 kts | 302° |
| 2026-05-05 15:52 | 25.24280 | 55.38248 | 27 ft | 90 kts | 302° |
| 2026-05-05 15:52 | 25.24524 | 55.37807 | 27 ft | 45 kts | 301° |
| 2026-05-05 15:52 | 25.24614 | 55.37515 | 27 ft | 14 kts | 275° |
| 2026-05-05 15:52 | 25.24617 | 55.37405 | 27 ft | 14 kts | 272° |
| 2026-05-05 15:53 | 25.24621 | 55.37319 | 27 ft | 4 kts | 275° |
| 2026-05-05 15:53 | 25.24626 | 55.37284 | 27 ft | 5 kts | 282° |
| 2026-05-05 15:53 | 25.24625 | 55.37248 | 27 ft | 5 kts | 235° |
| 2026-05-05 15:53 | 25.24592 | 55.37222 | 27 ft | 6 kts | 211° |
| 2026-05-05 15:54 | 25.24553 | 55.37194 | 27 ft | 7 kts | 214° |
| 2026-05-05 15:54 | 25.24509 | 55.37163 | 27 ft | 8 kts | 211° |
| 2026-05-05 15:54 | 25.24486 | 55.37148 | 27 ft | 3 kts | 211° |
| 2026-05-05 15:54 | 25.24480 | 55.37144 | 27 ft | 1 kts | 211° |
| 2026-05-05 15:55 | 25.24478 | 55.37143 | 27 ft | 0 kts | 212° |
| 2026-05-05 15:55 | 25.24477 | 55.37143 | 27 ft | 0 kts | 209° |